Time;durP1;ratioP1;P1;durP2;ratioP2;P2;SDS_P1;SDS_P2;PMS_P1;PMS_P2;Temp;Humidity;BMP_temperature;BMP_pressure;BME280_temperature;BME280_humidity;BME280_pressure;Samples;Min_cycle;Max_cycle;Signal;HPM_P1;HPM_P2
2024/04/08 00:02:18;;;;;;;3.10;1.50;;;;;;;8.54;100.00;100758.38;105819;1260;72953;-56
2024/04/08 00:04:46;;;;;;;3.10;1.40;;;;;;;8.51;100.00;100758.09;106030;1261;61397;-56
2024/04/08 00:07:12;;;;;;;4.20;1.20;;;;;;;8.50;100.00;100755.96;105959;1259;60918;-56
2024/04/08 00:09:39;;;;;;;4.30;1.00;;;;;;;8.51;100.00;100752.53;105821;1257;75073;-57
2024/04/08 00:12:06;;;;;;;2.30;1.50;;;;;;;8.54;100.00;100752.64;105924;1258;66823;-56
2024/04/08 00:14:32;;;;;;;2.60;0.90;;;;;;;8.55;100.00;100754.77;105817;1263;72845;-56
2024/04/08 00:16:59;;;;;;;1.50;1.10;;;;;;;8.58;100.00;100750.41;105834;1262;62290;-57
2024/04/08 00:19:26;;;;;;;2.70;1.00;;;;;;;8.60;100.00;100746.39;106046;1257;62094;-56
2024/04/08 00:21:53;;;;;;;4.30;1.30;;;;;;;8.61;100.00;100746.20;106006;1257;75980;-57
2024/04/08 00:24:20;;;;;;;6.10;2.00;;;;;;;8.59;100.00;100750.52;106103;1258;65634;-56
2024/04/08 00:26:46;;;;;;;3.00;1.50;;;;;;;8.57;100.00;100752.39;106154;1254;73660;-56
2024/04/08 00:29:13;;;;;;;2.00;1.20;;;;;;;8.50;100.00;100752.20;106057;1254;61582;-55
2024/04/08 00:31:39;;;;;;;4.20;1.70;;;;;;;8.44;100.00;100755.19;105996;1254;61502;-55
2024/04/08 00:34:06;;;;;;;3.40;1.70;;;;;;;8.42;100.00;100751.88;106068;1254;74727;-55
2024/04/08 00:36:33;;;;;;;4.40;1.60;;;;;;;8.41;100.00;100750.66;106039;1254;67556;-56
2024/04/08 00:39:00;;;;;;;4.90;1.20;;;;;;;8.40;100.00;100748.70;106148;1257;72929;-55
2024/04/08 00:41:27;;;;;;;4.10;1.90;;;;;;;8.37;100.00;100752.87;106756;1259;61209;-55
2024/04/08 00:43:53;;;;;;;2.40;1.20;;;;;;;8.29;100.00;100752.31;106070;1254;61356;-55
2024/04/08 00:46:20;;;;;;;2.30;1.30;;;;;;;8.26;100.00;100756.31;105990;1254;75416;-55
2024/04/08 00:48:48;;;;;;;4.60;1.50;;;;;;;8.24;100.00;100753.52;106293;1255;67167;-56
2024/04/08 00:51:15;;;;;;;2.60;1.10;;;;;;;8.26;100.00;100753.80;106387;1254;73051;-56
2024/04/08 00:53:41;;;;;;;2.80;1.50;;;;;;;8.26;100.00;100753.95;105998;1257;61366;-56
2024/04/08 00:56:09;;;;;;;3.10;1.30;;;;;;;8.26;100.00;100748.96;107203;1256;61355;-57
2024/04/08 00:58:38;;;;;;;3.10;1.60;;;;;;;8.24;100.00;100749.38;106133;1254;74923;-56
2024/04/08 01:01:05;;;;;;;3.70;1.40;;;;;;;8.21;100.00;100756.07;107984;1254;67288;-56
2024/04/08 01:03:33;;;;;;;4.50;1.50;;;;;;;8.20;100.00;100755.91;106155;1254;73821;-54
2024/04/08 01:05:59;;;;;;;2.90;1.50;;;;;;;8.16;100.00;100751.35;106950;1257;61272;-55
2024/04/08 01:08:26;;;;;;;2.40;2.00;;;;;;;8.14;100.00;100749.63;106272;1257;62187;-56
2024/04/08 01:10:55;;;;;;;3.50;1.60;;;;;;;8.13;100.00;100750.54;106022;1259;75125;-56
2024/04/08 01:13:21;;;;;;;4.60;2.00;;;;;;;8.13;100.00;100754.29;106065;1256;69564;-56
2024/04/08 01:15:48;;;;;;;3.00;2.10;;;;;;;8.12;100.00;100751.63;106132;1258;71465;-56
2024/04/08 01:18:15;;;;;;;2.10;1.50;;;;;;;8.10;100.00;100749.34;106121;1258;61637;-57
2024/04/08 01:20:42;;;;;;;1.90;1.20;;;;;;;8.10;100.00;100752.91;106094;1257;61218;-62
2024/04/08 01:23:09;;;;;;;2.00;1.40;;;;;;;8.12;100.00;100756.64;106201;1257;75001;-56
2024/04/08 01:25:36;;;;;;;2.90;1.30;;;;;;;8.12;100.00;100752.34;105941;1260;66121;-56
2024/04/08 01:28:03;;;;;;;2.70;1.80;;;;;;;8.13;100.00;100752.51;106034;1259;72943;-56
2024/04/08 01:30:30;;;;;;;2.40;1.30;;;;;;;8.14;100.00;100753.20;109087;1254;59104;-57
2024/04/08 01:32:57;;;;;;;3.40;1.50;;;;;;;8.13;100.00;100754.11;109143;1254;60057;-56
2024/04/08 01:35:23;;;;;;;2.80;1.60;;;;;;;8.09;100.00;100755.09;109228;1253;74711;-56
2024/04/08 01:37:50;;;;;;;2.90;1.50;;;;;;;8.05;100.00;100753.92;109092;1254;66173;-56
2024/04/08 01:40:17;;;;;;;3.40;1.90;;;;;;;8.05;100.00;100750.70;107219;1257;72769;-56
2024/04/08 01:42:44;;;;;;;2.70;2.00;;;;;;;8.07;100.00;100745.13;109143;1254;61027;-56
2024/04/08 01:45:11;;;;;;;4.70;1.60;;;;;;;8.07;100.00;100746.04;109102;1254;60267;-56
2024/04/08 01:47:38;;;;;;;2.30;1.90;;;;;;;8.04;100.00;100748.41;107591;1257;76485;-56
2024/04/08 01:50:05;;;;;;;6.20;1.50;;;;;;;8.02;100.00;100757.04;105973;1254;67180;-55
2024/04/08 01:52:32;;;;;;;2.60;1.30;;;;;;;7.98;100.00;100754.80;106058;1259;72972;-56
2024/04/08 01:54:59;;;;;;;3.10;1.40;;;;;;;7.93;100.00;100756.33;107933;1253;60731;-56
2024/04/08 01:57:27;;;;;;;1.60;1.10;;;;;;;7.92;100.00;100755.45;106100;1254;61632;-53
2024/04/08 01:59:54;;;;;;;5.20;1.60;;;;;;;7.94;100.00;100755.96;106075;1259;74856;-55
2024/04/08 02:02:21;;;;;;;1.30;1.10;;;;;;;7.97;100.00;100756.42;106124;1259;66980;-56
2024/04/08 02:04:47;;;;;;;4.50;1.30;;;;;;;7.99;100.00;100755.50;106167;1254;72610;-53
2024/04/08 02:07:14;;;;;;;2.10;1.50;;;;;;;7.98;100.00;100757.29;106051;1258;61323;-56
2024/04/08 02:09:41;;;;;;;2.30;1.60;;;;;;;7.99;100.00;100760.84;106060;1259;62176;-54
2024/04/08 02:12:08;;;;;;;5.10;1.60;;;;;;;8.00;100.00;100757.95;106169;1258;74911;-54
2024/04/08 02:14:35;;;;;;;2.50;1.70;;;;;;;8.01;100.00;100753.65;106190;1254;65769;-55
2024/04/08 02:17:02;;;;;;;3.80;1.70;;;;;;;8.02;100.00;100749.88;106633;1254;73199;-54
2024/04/08 02:19:29;;;;;;;2.40;1.90;;;;;;;8.03;100.00;100743.96;106225;1254;61994;-54
2024/04/08 02:21:55;;;;;;;4.40;1.60;;;;;;;8.02;100.00;100745.77;106099;1259;61530;-52
2024/04/08 02:24:22;;;;;;;5.10;1.40;;;;;;;7.98;100.00;100746.58;106145;1257;74990;-52
2024/04/08 02:26:49;;;;;;;1.90;1.20;;;;;;;7.96;100.00;100752.52;106101;1259;67366;-56
2024/04/08 02:29:16;;;;;;;4.10;1.70;;;;;;;7.96;100.00;100755.73;106193;1259;70614;-52
2024/04/08 02:31:43;;;;;;;2.10;1.20;;;;;;;7.97;100.00;100756.08;106073;1259;61345;-53
2024/04/08 02:34:10;;;;;;;2.80;1.70;;;;;;;7.98;100.00;100756.60;106712;1257;61449;-54
2024/04/08 02:36:37;;;;;;;1.60;1.40;;;;;;;8.00;100.00;100755.48;106102;1254;75190;-57
2024/04/08 02:39:04;;;;;;;4.50;1.60;;;;;;;8.03;100.00;100755.77;106154;1254;66826;-53
2024/04/08 02:41:31;;;;;;;1.50;1.10;;;;;;;8.05;100.00;100754.30;106374;1257;74103;-55
2024/04/08 02:43:58;;;;;;;3.00;1.50;;;;;;;8.08;100.00;100750.10;106158;1259;61350;-53
2024/04/08 02:46:24;;;;;;;1.90;1.60;;;;;;;8.11;100.00;100751.47;106065;1254;61218;-53
2024/04/08 02:48:51;;;;;;;2.30;1.20;;;;;;;8.13;100.00;100759.83;106039;1254;74506;-55
2024/04/08 02:51:18;;;;;;;2.00;1.40;;;;;;;8.15;100.00;100759.27;106308;1257;67075;-55
2024/04/08 02:53:45;;;;;;;2.00;1.80;;;;;;;8.12;100.00;100756.64;106204;1259;73109;-52
2024/04/08 02:56:12;;;;;;;4.30;1.80;;;;;;;8.09;100.00;100759.38;106045;1254;61356;-53
2024/04/08 02:58:39;;;;;;;2.90;1.40;;;;;;;8.07;100.00;100756.39;106116;1259;62168;-55
2024/04/08 03:01:13;;;;;;;2.30;1.90;;;;;;;8.07;100.00;100759.63;106110;1254;74943;-54
2024/04/08 03:03:40;;;;;;;2.30;1.50;;;;;;;8.06;100.00;100761.78;107199;1254;66777;-54
2024/04/08 03:06:11;;;;;;;2.50;1.40;;;;;;;8.05;100.00;100762.52;106501;1254;73204;-53
2024/04/08 03:08:40;;;;;;;6.40;1.20;;;;;;;8.02;100.00;100764.54;106583;1259;61718;-55
2024/04/08 03:11:07;;;;;;;3.10;1.10;;;;;;;8.00;100.00;100765.29;106784;1258;61217;-56
2024/04/08 03:13:35;;;;;;;2.00;1.00;;;;;;;8.02;100.00;100767.22;106314;1259;74742;-52
2024/04/08 03:16:01;;;;;;;1.80;0.90;;;;;;;8.05;100.00;100767.53;106661;1259;66778;-54
2024/04/08 03:18:29;;;;;;;2.70;1.10;;;;;;;8.07;100.00;100761.77;106117;1256;73687;-53
2024/04/08 03:20:56;;;;;;;1.60;0.80;;;;;;;8.10;100.00;100759.71;106198;1259;61183;-53
2024/04/08 03:23:23;;;;;;;1.70;1.00;;;;;;;8.12;100.00;100760.02;106280;1259;61329;-54
2024/04/08 03:26:00;;;;;;;2.90;0.90;;;;;;;8.16;100.00;100765.31;106196;1270;73380;-53
2024/04/08 03:28:27;;;;;;;4.30;0.80;;;;;;;8.19;100.00;100761.84;106100;1254;66871;-57
2024/04/08 03:30:54;;;;;;;2.00;0.80;;;;;;;8.22;100.00;100761.77;106333;1260;72562;-54
2024/04/08 03:33:23;;;;;;;1.00;0.60;;;;;;;8.24;100.00;100764.42;106176;1259;61307;-55
2024/04/08 03:35:50;;;;;;;1.20;0.60;;;;;;;8.26;100.00;100766.31;106168;1260;61196;-53
2024/04/08 03:38:16;;;;;;;2.10;0.70;;;;;;;8.29;100.00;100770.01;106245;1266;75055;-52
2024/04/08 03:40:44;;;;;;;2.50;0.70;;;;;;;8.32;100.00;100775.16;106069;1258;66937;-53
2024/04/08 03:43:11;;;;;;;1.80;0.80;;;;;;;8.32;100.00;100774.10;105994;1257;72949;-54
2024/04/08 03:45:38;;;;;;;3.00;0.80;;;;;;;8.34;100.00;100773.86;106282;1259;61403;-54
2024/04/08 03:48:05;;;;;;;1.70;0.70;;;;;;;8.39;100.00;100773.95;106492;1260;62177;-54
2024/04/08 03:50:37;;;;;;;1.20;0.90;;;;;;;8.44;100.00;100777.40;106245;1254;74956;-53
2024/04/08 03:53:03;;;;;;;2.70;0.90;;;;;;;8.49;100.00;100777.10;106272;1259;65587;-54
2024/04/08 03:55:30;;;;;;;4.10;1.00;;;;;;;8.54;100.00;100779.48;106063;1254;73349;-54
2024/04/08 03:57:58;;;;;;;3.30;0.90;;;;;;;8.59;100.00;100779.36;106013;1255;61247;-54
2024/04/08 04:00:25;;;;;;;1.80;0.90;;;;;;;8.64;100.00;100781.75;106066;1254;61445;-53
2024/04/08 04:02:52;;;;;;;1.90;0.70;;;;;;;8.68;100.00;100779.30;106789;1257;74374;-55
2024/04/08 04:05:19;;;;;;;3.30;0.70;;;;;;;8.73;100.00;100777.05;106709;1258;68667;-54
2024/04/08 04:07:46;;;;;;;3.00;0.70;;;;;;;8.79;100.00;100776.72;106466;1257;72846;-52
2024/04/08 04:10:14;;;;;;;4.80;0.60;;;;;;;8.86;100.00;100779.41;108769;1254;61969;-52
2024/04/08 04:12:41;;;;;;;1.40;0.70;;;;;;;8.94;100.00;100780.98;109074;1254;58878;-53
2024/04/08 04:15:10;;;;;;;5.40;1.10;;;;;;;9.03;100.00;100784.70;107047;1257;74575;-54
2024/04/08 04:17:40;;;;;;;3.10;1.00;;;;;;;9.13;100.00;100788.22;109057;1257;66964;-55
2024/04/08 04:20:11;;;;;;;2.50;0.70;;;;;;;9.26;100.00;100789.84;109059;1253;71431;-52
2024/04/08 04:22:38;;;;;;;3.10;1.20;;;;;;;9.40;100.00;100798.23;109244;1254;63135;-53
2024/04/08 04:25:05;;;;;;;2.10;0.80;;;;;;;9.55;100.00;100801.59;109107;1254;59310;-55
2024/04/08 04:27:32;;;;;;;8.90;0.90;;;;;;;9.73;100.00;100803.04;107137;1257;75062;-55
2024/04/08 04:29:58;;;;;;;2.50;1.00;;;;;;;9.92;100.00;100803.95;106085;1255;67092;-55
2024/04/08 04:32:25;;;;;;;1.60;0.80;;;;;;;10.09;100.00;100803.80;106075;1254;72091;-56
2024/04/08 04:34:52;;;;;;;4.80;0.90;;;;;;;10.26;100.00;100804.92;106105;1259;61377;-54
2024/04/08 04:37:19;;;;;;;3.90;0.90;;;;;;;10.44;100.00;100805.64;106046;1254;61350;-54
2024/04/08 04:39:46;;;;;;;1.90;0.80;;;;;;;10.62;100.00;100808.64;106070;1254;74866;-54
2024/04/08 04:42:13;;;;;;;2.30;0.90;;;;;;;10.80;100.00;100809.50;106050;1260;70055;-52
2024/04/08 04:44:40;;;;;;;5.00;1.00;;;;;;;10.97;100.00;100811.11;109150;1254;72573;-54
2024/04/08 04:47:07;;;;;;;6.00;1.70;;;;;;;11.11;100.00;100812.98;106935;1260;62609;-53
2024/04/08 04:49:33;;;;;;;2.60;0.90;;;;;;;11.21;100.00;100817.29;106577;1254;60952;-54
2024/04/08 04:52:00;;;;;;;2.30;0.90;;;;;;;11.30;100.00;100820.73;106194;1259;74993;-54
2024/04/08 04:54:27;;;;;;;4.30;1.00;;;;;;;11.39;100.00;100822.98;106376;1259;65806;-54
2024/04/08 04:56:58;;;;;;;2.10;0.90;;;;;;;11.47;100.00;100824.51;106192;1259;72784;-53
2024/04/08 04:59:25;;;;;;;13.40;1.40;;;;;;;11.53;100.00;100825.90;106075;1257;61342;-54
2024/04/08 05:01:51;;;;;;;4.50;1.20;;;;;;;11.59;100.00;100826.74;106023;1254;61209;-56
2024/04/08 05:04:18;;;;;;;4.30;1.10;;;;;;;11.65;100.00;100823.67;106029;1259;75626;-54
2024/04/08 05:06:45;;;;;;;2.80;1.00;;;;;;;11.70;100.00;100822.40;106023;1269;65907;-54
2024/04/08 05:09:13;;;;;;;3.00;1.30;;;;;;;11.76;100.00;100824.73;106167;1254;73154;-55
2024/04/08 05:11:40;;;;;;;2.90;1.30;;;;;;;11.81;100.00;100831.23;106060;1260;61439;-53
2024/04/08 05:14:07;;;;;;;2.30;1.40;;;;;;;11.86;100.00;100832.29;106743;1254;61388;-53
2024/04/08 05:16:33;;;;;;;3.70;1.50;;;;;;;11.91;100.00;100836.23;106057;1259;75487;-53
2024/04/08 05:19:00;;;;;;;3.70;1.20;;;;;;;11.96;100.00;100837.87;106025;1259;66373;-55
2024/04/08 05:21:27;;;;;;;3.70;1.60;;;;;;;12.00;100.00;100837.14;106043;1254;72901;-54
2024/04/08 05:23:54;;;;;;;3.30;1.00;;;;;;;12.06;100.00;100838.39;106056;1259;61321;-55
2024/04/08 05:26:21;;;;;;;2.50;1.30;;;;;;;12.10;100.00;100837.48;106074;1259;62060;-54
2024/04/08 05:28:49;;;;;;;2.90;1.10;;;;;;;12.17;100.00;100830.42;106100;1259;74315;-55
2024/04/08 05:31:16;;;;;;;4.80;1.20;;;;;;;12.23;100.00;100829.64;107075;1259;67689;-54
2024/04/08 05:33:43;;;;;;;3.30;1.40;;;;;;;12.29;100.00;100830.12;106031;1254;71560;-57
2024/04/08 05:36:09;;;;;;;1.40;1.20;;;;;;;12.37;100.00;100831.45;106066;1255;61231;-55
2024/04/08 05:38:36;;;;;;;8.70;1.30;;;;;;;12.44;100.00;100836.04;106090;1260;61366;-54
2024/04/08 05:41:03;;;;;;;6.10;1.80;;;;;;;12.51;100.00;100833.41;106213;1254;73607;-54
2024/04/08 05:43:31;;;;;;;5.30;2.10;;;;;;;12.58;100.00;100832.61;106239;1259;173001;-56
2024/04/08 05:46:35;;;;;;;7.90;2.30;;;;;;;12.67;100.00;100832.06;102781;1304;601439;-53
2024/04/08 05:49:02;;;;;;;4.20;1.40;;;;;;;12.71;100.00;100836.38;105222;1268;59505;-53
2024/04/08 05:51:29;;;;;;;4.30;1.60;;;;;;;12.78;100.00;100836.30;105215;1268;59336;-55
2024/04/08 05:53:58;;;;;;;4.60;2.20;;;;;;;12.83;100.00;100836.27;105268;1269;72135;-54
2024/04/08 05:56:25;;;;;;;4.10;1.40;;;;;;;12.89;100.00;100838.89;105364;1268;66621;-53
2024/04/08 05:58:51;;;;;;;2.70;1.20;;;;;;;12.95;100.00;100844.64;105405;1269;73163;-56
2024/04/08 06:01:18;;;;;;;5.00;1.60;;;;;;;13.00;100.00;100845.86;105283;1264;184344;-58
2024/04/08 06:03:45;;;;;;;2.60;1.40;;;;;;;13.07;100.00;100849.54;105653;1276;59647;-54
2024/04/08 06:06:18;;;;;;;3.10;1.60;;;;;;;13.15;100.00;100849.73;105449;1266;71828;-53
2024/04/08 06:08:47;;;;;;;3.80;1.50;;;;;;;13.24;100.00;100851.02;105965;1267;67258;-55
2024/04/08 06:11:14;;;;;;;5.50;1.90;;;;;;;13.31;100.00;100852.88;105585;1270;71476;-55
2024/04/08 06:13:41;;;;;;;4.00;1.30;;;;;;;13.39;100.00;100855.59;105409;1276;60802;-54
2024/04/08 06:16:08;;;;;;;7.50;1.60;;;;;;;13.47;100.00;100857.96;105926;1266;60682;-56
2024/04/08 06:18:35;;;;;;;6.70;1.70;;;;;;;13.54;100.00;100855.70;105459;1279;73893;-54
2024/04/08 06:21:02;;;;;;;2.60;1.20;;;;;;;13.61;100.00;100858.41;105362;1267;66787;-54
2024/04/08 06:23:29;;;;;;;4.50;1.30;;;;;;;13.67;100.00;100861.08;105541;1267;72533;-55
2024/04/08 06:26:00;;;;;;;3.20;1.00;;;;;;;13.72;100.00;100862.63;105763;1267;60841;-55
2024/04/08 06:28:26;;;;;;;5.40;1.50;;;;;;;13.79;100.00;100862.16;105456;1266;59584;-55
2024/04/08 06:30:54;;;;;;;2.30;1.30;;;;;;;13.87;100.00;100864.33;107232;1264;74097;-54
2024/04/08 06:33:21;;;;;;;1.80;1.10;;;;;;;13.96;100.00;100863.02;105723;1264;67057;-54
2024/04/08 06:35:48;;;;;;;5.20;1.40;;;;;;;14.09;100.00;100866.05;105697;1267;71726;-55
2024/04/08 06:38:15;;;;;;;5.60;1.40;;;;;;;14.22;100.00;100871.58;105459;1263;60571;-54
2024/04/08 06:40:42;;;;;;;1.60;1.10;;;;;;;14.36;100.00;100871.85;105410;1267;60405;-54
2024/04/08 06:43:09;;;;;;;1.30;0.90;;;;;;;14.49;100.00;100877.08;105814;1266;73726;-53
2024/04/08 06:45:36;;;;;;;4.30;1.60;;;;;;;14.60;100.00;100876.91;105409;1266;66555;-54
2024/04/08 06:48:03;;;;;;;5.10;0.90;;;;;;;14.72;100.00;100879.75;105363;1267;72589;-54
2024/04/08 06:50:30;;;;;;;4.40;1.00;;;;;;;14.85;100.00;100886.55;105681;1266;61334;-55
2024/04/08 06:52:57;;;;;;;3.80;1.20;;;;;;;14.98;100.00;100887.73;105413;1264;60534;-55
2024/04/08 06:55:24;;;;;;;4.60;0.90;;;;;;;15.11;100.00;100893.92;105601;1267;74608;-56
2024/04/08 06:57:51;;;;;;;2.30;0.90;;;;;;;15.23;100.00;100895.33;105383;1275;67786;-53
2024/04/08 07:00:19;;;;;;;2.20;1.00;;;;;;;15.34;100.00;100894.44;105490;1270;72042;-57
2024/04/08 07:02:46;;;;;;;2.80;0.70;;;;;;;15.45;100.00;100896.58;105409;1264;60731;-54
2024/04/08 07:05:13;;;;;;;3.30;1.30;;;;;;;15.54;100.00;100895.96;105354;1266;60319;-54
2024/04/08 07:07:40;;;;;;;1.70;0.80;;;;;;;15.63;100.00;100896.27;105874;1264;74140;-54
2024/04/08 07:10:06;;;;;;;3.60;1.00;;;;;;;15.71;100.00;100898.18;105665;1267;67068;-54
2024/04/08 07:12:33;;;;;;;3.30;0.80;;;;;;;15.80;100.00;100900.58;105424;1264;72528;-53
2024/04/08 07:15:02;;;;;;;4.00;0.80;;;;;;;15.89;100.00;100898.33;105404;1268;60433;-55
2024/04/08 07:17:29;;;;;;;3.20;0.80;;;;;;;15.99;100.00;100899.44;108510;1263;59068;-53
2024/04/08 07:19:57;;;;;;;2.90;0.80;;;;;;;16.09;100.00;100902.70;108741;1264;73632;-53
2024/04/08 07:22:24;;;;;;;2.20;0.70;;;;;;;16.18;100.00;100901.52;108498;1264;66493;-57
2024/04/08 07:24:50;;;;;;;1.80;0.70;;;;;;;16.27;100.00;100900.48;108594;1263;71596;-54
2024/04/08 07:27:17;;;;;;;3.00;0.80;;;;;;;16.38;100.00;100904.05;108673;1263;59512;-54
2024/04/08 07:29:44;;;;;;;2.10;0.70;;;;;;;16.46;100.00;100900.50;108538;1263;58860;-53
2024/04/08 07:32:11;;;;;;;1.50;0.60;;;;;;;16.58;100.00;100899.88;108573;1262;74022;-54
2024/04/08 07:34:37;;;;;;;2.80;0.70;;;;;;;16.70;100.00;100899.41;107875;1264;67196;-54
2024/04/08 07:37:04;;;;;;;3.30;0.70;;;;;;;16.84;100.00;100898.65;105373;1266;71574;-54
2024/04/08 07:39:31;;;;;;;2.60;0.60;;;;;;;16.96;100.00;100896.51;108537;1263;58785;-53
2024/04/08 07:42:04;;;;;;;4.10;0.70;;;;;;;17.09;100.00;100896.45;108667;1263;59284;-54
2024/04/08 07:44:30;;;;;;;1.40;0.50;;;;;;;17.21;100.00;100899.08;108499;1262;72626;-54
2024/04/08 07:46:57;;;;;;;2.00;0.50;;;;;;;17.30;100.00;100896.18;108546;1262;66626;-55
2024/04/08 07:49:24;;;;;;;3.30;0.50;;;;;;;17.41;100.00;100899.53;107214;1266;70741;-53
2024/04/08 07:51:51;;;;;;;2.70;0.40;;;;;;;17.50;100.00;100900.80;105448;1263;60495;-55
2024/04/08 07:54:18;;;;;;;2.10;0.50;;;;;;;17.60;100.00;100902.06;105663;1266;60549;-58
2024/04/08 07:56:45;;;;;;;1.70;0.50;;;;;;;17.71;100.00;100901.23;105344;1279;75083;-56
2024/04/08 07:59:11;;;;;;;1.10;0.50;;;;;;;17.78;100.00;100901.52;105476;1267;66425;-54
2024/04/08 08:01:38;;;;;;;2.70;0.60;;;;;;;17.84;100.00;100904.41;105468;1263;71892;-55
2024/04/08 08:04:05;;;;;;;2.70;0.50;;;;;;;17.94;100.00;100905.82;105341;1276;64593;-55
2024/04/08 08:06:32;;;;;;;2.30;0.50;;;;;;;18.06;100.00;100910.70;105361;1267;60434;-54
2024/04/08 08:08:59;;;;;;;2.50;0.50;;;;;;;18.19;100.00;100916.63;105621;1267;73799;-55
2024/04/08 08:11:26;;;;;;;1.90;0.60;;;;;;;18.31;100.00;100914.25;105619;1270;67210;-54
2024/04/08 08:13:53;;;;;;;1.00;0.40;;;;;;;18.40;100.00;100912.38;105462;1264;72379;-54
2024/04/08 08:16:19;;;;;;;4.10;0.40;;;;;;;18.51;100.00;100920.59;105355;1269;60523;-55
2024/04/08 08:18:47;;;;;;;1.60;0.50;;;;;;;18.63;100.00;100913.04;105454;1267;60434;-56
2024/04/08 08:21:14;;;;;;;1.00;0.50;;;;;;;18.67;100.00;100916.73;106076;1263;74106;-56
2024/04/08 08:23:41;;;;;;;1.90;0.50;;;;;;;18.70;100.00;100919.50;105452;1264;67946;-56
2024/04/08 08:26:07;;;;;;;3.30;0.80;;;;;;;18.75;100.00;100921.52;105561;1262;72286;-55
2024/04/08 08:28:34;;;;;;;0.80;0.50;;;;;;;18.80;100.00;100925.33;105478;1267;60661;-57
2024/04/08 08:31:01;;;;;;;2.40;0.30;;;;;;;18.90;100.00;100930.55;105408;1267;60376;-55
2024/04/08 08:33:28;;;;;;;2.00;0.40;;;;;;;19.00;100.00;100930.81;105449;1263;73908;-55
2024/04/08 08:35:55;;;;;;;1.20;0.40;;;;;;;19.04;100.00;100931.98;105501;1266;67188;-55
2024/04/08 08:38:22;;;;;;;0.80;0.40;;;;;;;19.11;100.00;100929.19;105553;1266;72679;-58
2024/04/08 08:41:04;;;;;;;3.00;0.50;;;;;;;19.19;100.00;100932.67;106355;1262;60409;-55
2024/04/08 08:43:31;;;;;;;1.80;0.40;;;;;;;19.28;100.00;100933.48;105779;1263;60323;-56
2024/04/08 08:45:58;;;;;;;2.50;0.30;;;;;;;19.38;100.00;100930.65;105796;1267;74131;-57
2024/04/08 08:48:25;;;;;;;3.20;0.50;;;;;;;19.48;100.00;100934.58;105367;1264;67063;-56
2024/04/08 08:50:52;;;;;;;1.70;0.50;;;;;;;19.57;100.00;100931.42;105323;1264;73887;-55
2024/04/08 08:53:18;;;;;;;2.10;0.40;;;;;;;19.65;100.00;100933.40;105318;1267;60426;-54
2024/04/08 08:55:45;;;;;;;2.10;0.50;;;;;;;19.72;100.00;100929.00;105400;1268;62456;-54
2024/04/08 08:58:13;;;;;;;2.10;0.60;;;;;;;19.75;100.00;100923.25;105348;1279;73804;-55
2024/04/08 09:00:40;;;;;;;2.10;0.50;;;;;;;19.80;100.00;100923.33;105354;1267;66365;-55
2024/04/08 09:03:12;;;;;;;1.80;0.50;;;;;;;19.84;100.00;100921.77;106099;1269;72734;-57
2024/04/08 09:05:39;;;;;;;1.50;0.30;;;;;;;19.89;100.00;100919.63;105404;1264;60552;-54
2024/04/08 09:08:06;;;;;;;1.30;0.20;;;;;;;19.95;100.00;100919.15;106046;1267;60498;-57
2024/04/08 09:10:43;;;;;;;1.60;0.40;;;;;;;20.01;100.00;100915.80;105768;1263;74102;-57
2024/04/08 09:13:26;;;;;;;4.70;0.40;;;;;;;20.07;100.00;100913.80;105698;1263;67054;-56
2024/04/08 09:15:53;;;;;;;1.70;0.30;;;;;;;20.14;100.00;100916.02;105635;1267;71468;-59
2024/04/08 09:18:20;;;;;;;1.80;0.40;;;;;;;20.24;100.00;100918.81;105383;1265;60415;-53
2024/04/08 09:20:47;;;;;;;0.80;0.30;;;;;;;20.31;100.00;100914.43;105902;1262;60344;-55
2024/04/08 09:23:14;;;;;;;1.80;0.40;;;;;;;20.38;100.00;100913.06;105472;1269;73697;-56
2024/04/08 09:25:40;;;;;;;1.00;0.40;;;;;;;20.44;100.00;100916.13;105402;1267;65757;-55
2024/04/08 09:28:09;;;;;;;1.50;0.60;;;;;;;20.49;100.00;100916.69;105398;1275;72664;-56
2024/04/08 09:30:36;;;;;;;1.50;0.40;;;;;;;20.50;100.00;100920.10;105790;1266;60443;-55
2024/04/08 09:33:05;;;;;;;1.60;0.20;;;;;;;20.51;100.00;100916.86;105548;1262;60444;-55
2024/04/08 09:35:38;;;;;;;1.30;0.20;;;;;;;20.56;100.00;100909.84;105675;1268;73454;-55
2024/04/08 09:38:07;;;;;;;1.20;0.30;;;;;;;20.61;100.00;100905.23;105786;1262;68220;-59
2024/04/08 09:40:34;;;;;;;3.40;0.40;;;;;;;20.67;100.00;100906.66;105934;1266;72388;-56
2024/04/08 09:43:03;;;;;;;3.20;0.40;;;;;;;20.69;100.00;100911.73;105270;1270;60422;-57
2024/04/08 09:45:30;;;;;;;1.70;0.40;;;;;;;20.69;100.00;100910.63;105517;1267;60527;-54
2024/04/08 09:47:57;;;;;;;2.50;0.30;;;;;;;20.72;100.00;100907.33;105370;1269;72434;-57
2024/04/08 09:50:24;;;;;;;0.50;0.20;;;;;;;20.75;100.00;100907.54;105229;1269;67782;-57
2024/04/08 09:52:51;;;;;;;0.50;0.30;;;;;;;20.81;100.00;100903.27;105203;1270;74112;-55
2024/04/08 09:55:18;;;;;;;6.20;0.70;;;;;;;20.89;100.00;100899.56;105473;1269;61460;-56
2024/04/08 09:57:47;;;;;;;1.10;0.30;;;;;;;20.95;100.00;100900.35;105256;1263;60054;-54
2024/04/08 10:00:20;;;;;;;1.80;0.20;;;;;;;21.00;100.00;100900.17;105357;1279;74900;-56
2024/04/08 10:02:48;;;;;;;0.80;0.40;;;;;;;21.05;100.00;100902.01;105392;1266;66338;-55
2024/04/08 10:05:15;;;;;;;2.80;0.40;;;;;;;21.10;100.00;100899.83;106653;1267;72378;-58
2024/04/08 10:07:42;;;;;;;1.40;0.30;;;;;;;21.14;100.00;100905.75;105297;1278;61341;-58
2024/04/08 10:10:11;;;;;;;0.60;0.40;;;;;;;21.17;100.00;100905.14;105336;1273;61234;-56
2024/04/08 10:12:40;;;;;;;0.70;0.20;;;;;;;21.23;100.00;100905.98;105598;1269;75052;-55
2024/04/08 10:15:10;;;;;;;1.00;0.30;;;;;;;21.29;100.00;100897.70;105427;1263;67048;-55
2024/04/08 10:17:40;;;;;;;0.70;0.30;;;;;;;21.33;100.00;100896.34;105438;1267;72793;-57
2024/04/08 10:20:10;;;;;;;1.60;0.40;;;;;;;21.36;100.00;100896.42;105910;1263;61260;-58
2024/04/08 10:22:37;;;;;;;1.30;0.30;;;;;;;21.40;100.00;100892.68;107451;1265;61363;-54
2024/04/08 10:25:04;;;;;;;2.40;0.40;;;;;;;21.42;100.00;100890.31;105172;1270;75424;-57
2024/04/08 10:27:33;;;;;;;1.10;0.30;;;;;;;21.43;100.00;100885.67;108589;1262;66063;-54
2024/04/08 10:30:00;;;;;;;0.50;0.30;;;;;;;21.45;100.00;100874.02;108530;1262;71981;-55
2024/04/08 10:32:27;;;;;;;1.10;0.30;;;;;;;21.45;100.00;100876.34;108665;1263;59143;-53
2024/04/08 10:34:55;;;;;;;1.30;0.20;;;;;;;21.43;100.00;100872.35;108438;1264;60298;-56
2024/04/08 10:37:22;;;;;;;1.40;0.30;;;;;;;21.44;100.00;100871.00;108533;1263;74354;-55
2024/04/08 10:39:59;;;;;;;0.80;0.30;;;;;;;21.49;100.00;100870.83;108553;1262;65614;-55
2024/04/08 10:42:28;;;;;;;1.90;0.60;;;;;;;21.54;100.00;100871.52;108463;1262;70801;-55
2024/04/08 10:44:55;;;;;;;1.30;0.30;;;;;;;21.52;100.00;100862.89;108565;1263;60432;-56
2024/04/08 10:47:23;;;;;;;1.10;0.40;;;;;;;21.48;100.00;100856.44;109323;1252;59201;-58
2024/04/08 10:49:50;;;;;;;4.30;0.30;;;;;;;21.45;100.00;100855.02;109234;1252;74541;-58
2024/04/08 10:52:17;;;;;;;0.40;0.20;;;;;;;21.46;100.00;100849.32;109013;1252;67022;-55
2024/04/08 10:54:43;;;;;;;1.00;0.30;;;;;;;21.49;100.00;100843.92;109186;1253;71706;-54
2024/04/08 10:57:10;;;;;;;3.20;0.30;;;;;;;21.54;100.00;100844.27;109286;1252;60602;-57
2024/04/08 10:59:37;;;;;;;2.50;0.30;;;;;;;21.57;100.00;100842.83;109235;1253;60905;-56
2024/04/08 11:02:08;;;;;;;2.60;0.40;;;;;;;21.62;100.00;100838.94;109170;1252;73561;-55
2024/04/08 11:04:35;;;;;;;0.80;0.30;;;;;;;21.70;100.00;100840.15;107766;1255;66919;-54
2024/04/08 11:07:02;;;;;;;0.90;0.30;;;;;;;21.77;100.00;100834.44;106127;1259;72273;-56
2024/04/08 11:09:29;;;;;;;3.90;0.40;;;;;;;21.86;100.00;100826.98;106509;1256;61251;-57
2024/04/08 11:11:56;;;;;;;0.50;0.20;;;;;;;21.93;100.00;100825.16;106157;1253;62060;-57
2024/04/08 11:14:23;;;;;;;3.50;0.40;;;;;;;21.99;100.00;100824.38;106100;1257;74890;-55